createdAt,value
2019-04-22T00:02:15.857Z,12.80
2019-04-22T00:04:56.201Z,12.80
2019-04-22T00:07:38.818Z,12.80
2019-04-22T00:10:16.209Z,12.90
2019-04-22T00:12:41.845Z,12.80
2019-04-22T00:15:03.794Z,12.80
2019-04-22T00:17:46.551Z,12.70
2019-04-22T00:20:32.166Z,12.70
2019-04-22T00:22:38.716Z,12.70
2019-04-22T00:25:14.479Z,12.70
2019-04-22T00:27:47.900Z,12.70
2019-04-22T00:30:18.123Z,12.60
2019-04-22T00:32:57.615Z,12.60
2019-04-22T00:35:23.715Z,12.60
2019-04-22T00:37:59.782Z,12.50
2019-04-22T00:40:30.990Z,12.50
2019-04-22T00:45:31.134Z,12.50
2019-04-22T00:48:02.442Z,12.40
2019-04-22T00:53:05.697Z,12.40
2019-04-22T00:55:50.417Z,12.40
2019-04-22T00:58:06.260Z,12.40
2019-04-22T01:00:31.073Z,12.40
2019-04-22T01:03:03.099Z,12.40
2019-04-22T01:05:36.080Z,12.30
2019-04-22T01:08:09.780Z,12.40
2019-04-22T01:10:33.830Z,13.80
2019-04-22T01:13:04.839Z,12.30
2019-04-22T01:15:36.808Z,12.20
2019-04-22T01:18:03.952Z,13.80
2019-04-22T01:23:05.561Z,12.10
2019-04-22T01:25:34.496Z,12.10
2019-04-22T01:27:58.392Z,12.10
2019-04-22T01:30:24.145Z,12.10
2019-04-22T01:32:45.676Z,12.10
2019-04-22T01:35:24.679Z,12.10
2019-04-22T01:38:01.687Z,12.10
2019-04-22T01:40:39.137Z,12.10
2019-04-22T01:43:07.285Z,12.10
2019-04-22T01:45:39.383Z,12.10
2019-04-22T01:48:16.150Z,12.10
2019-04-22T01:50:37.050Z,12.10
2019-04-22T01:55:38.931Z,12.10
2019-04-22T01:58:08.452Z,12.10
2019-04-22T02:00:40.187Z,12.10
2019-04-22T02:03:12.273Z,12.10
2019-04-22T02:05:39.396Z,12.00
2019-04-22T02:08:14.873Z,12.00
2019-04-22T02:13:15.968Z,12.00
2019-04-22T02:15:47.773Z,12.00
2019-04-22T02:18:18.058Z,12.00
2019-04-22T02:20:43.289Z,12.00
2019-04-22T02:36:19.327Z,11.90
2019-04-22T02:43:46.456Z,11.80
2019-04-22T02:56:15.633Z,11.70
2019-04-22T02:58:46.883Z,11.70
2019-04-22T03:06:18.235Z,11.70
2019-04-22T03:08:41.483Z,11.60
2019-04-22T03:16:17.805Z,11.60
2019-04-22T03:18:57.265Z,11.50
2019-04-22T03:21:07.714Z,11.50
2019-04-22T03:23:45.270Z,11.50
2019-04-22T03:31:34.195Z,11.40
2019-04-22T03:34:22.493Z,11.40
2019-04-22T03:36:57.406Z,11.40
2019-04-22T03:39:06.712Z,11.40
2019-04-22T03:41:38.589Z,11.40
2019-04-22T03:46:21.475Z,11.40
2019-04-22T03:49:07.074Z,11.30
2019-04-22T03:51:38.266Z,11.40
2019-04-22T03:54:02.771Z,11.30
2019-04-22T03:57:03.377Z,11.30
2019-04-22T03:58:57.202Z,11.30
2019-04-22T04:01:33.653Z,11.30
2019-04-22T04:04:07.492Z,11.30
2019-04-22T04:06:32.398Z,11.20
2019-04-22T04:08:53.257Z,11.20
2019-04-22T04:11:24.565Z,11.20
2019-04-22T04:14:03.516Z,11.20
2019-04-22T04:16:29.861Z,11.10
2019-04-22T04:24:19.034Z,11.10
2019-04-22T04:26:35.364Z,11.00
2019-04-22T04:29:02.872Z,10.90
2019-04-22T04:33:54.152Z,10.80
2019-04-22T04:36:32.167Z,10.80
2019-04-22T04:39:02.920Z,10.80
2019-04-22T04:44:06.184Z,10.70
2019-04-22T04:54:05.701Z,10.80
2019-04-22T04:59:05.384Z,10.90
2019-04-22T05:01:30.191Z,10.90
2019-04-22T05:06:40.335Z,11.00
2019-04-22T05:09:13.320Z,11.10
2019-04-22T05:11:37.231Z,11.10
2019-04-22T05:14:05.499Z,11.10
2019-04-22T05:19:05.642Z,11.20
2019-04-22T05:24:00.057Z,11.30
2019-04-22T05:26:27.942Z,11.40
2019-04-22T05:28:55.001Z,11.50
2019-04-22T05:31:26.492Z,11.60
2019-04-22T05:33:56.704Z,11.70
2019-04-22T05:38:58.208Z,11.90
2019-04-22T05:41:26.620Z,12.10
2019-04-22T05:43:59.929Z,12.10
2019-04-22T05:46:26.191Z,12.30
2019-04-22T05:49:09.199Z,12.40
2019-04-22T05:51:29.495Z,12.40
2019-04-22T05:53:59.032Z,12.60
2019-04-22T05:56:34.246Z,12.60
2019-04-22T05:58:58.794Z,12.70
2019-04-22T06:04:03.937Z,12.90
2019-04-22T06:06:35.569Z,13.10
2019-04-22T06:08:57.848Z,13.10
2019-04-22T06:11:31.289Z,13.20
2019-04-22T06:13:56.128Z,13.20
2019-04-22T06:16:31.065Z,13.20
2019-04-22T06:19:03.180Z,13.30
2019-04-22T06:21:35.582Z,13.30
2019-04-22T06:24:09.537Z,13.40
2019-04-22T06:29:19.719Z,13.50
2019-04-22T06:32:12.056Z,13.60
2019-04-22T06:34:27.592Z,13.70
2019-04-22T06:39:28.201Z,13.90
2019-04-22T06:41:56.200Z,14.00
2019-04-22T06:44:36.866Z,14.10
2019-04-22T06:46:52.359Z,14.10
2019-04-22T06:49:23.898Z,14.20
2019-04-22T06:51:55.783Z,14.30
2019-04-22T06:56:58.101Z,14.50
2019-04-22T06:59:29.773Z,14.60
2019-04-22T07:01:59.365Z,14.70
2019-04-22T07:04:23.255Z,14.80
2019-04-22T07:06:56.055Z,14.80
2019-04-22T07:09:33.541Z,14.90
2019-04-22T07:11:57.616Z,15.00
2019-04-22T07:14:23.877Z,15.10
2019-04-22T07:17:00.594Z,15.10
2019-04-22T07:19:30.833Z,15.20
2019-04-22T07:21:57.678Z,15.30
2019-04-22T07:24:40.640Z,15.40
2019-04-22T07:27:01.874Z,15.50
2019-04-22T07:29:27.280Z,15.50
2019-04-22T07:34:40.902Z,15.50
2019-04-22T07:36:59.187Z,15.50
2019-04-22T07:39:32.639Z,15.60
2019-04-22T07:41:59.199Z,15.70
2019-04-22T07:44:48.480Z,15.60
2019-04-22T07:47:04.605Z,15.60
2019-04-22T07:49:35.270Z,15.60
2019-04-22T07:51:55.863Z,15.70
2019-04-22T07:54:29.122Z,15.70
2019-04-22T07:57:02.934Z,15.80
2019-04-22T07:59:32.221Z,15.90
2019-04-22T08:01:57.205Z,16.00
2019-04-22T08:07:05.126Z,16.20
2019-04-22T08:09:35.862Z,16.30
2019-04-22T08:11:55.362Z,16.30
2019-04-22T08:14:34.448Z,16.40
2019-04-22T08:17:14.402Z,16.50
2019-04-22T08:19:35.430Z,16.60
2019-04-22T08:22:02.785Z,16.70
2019-04-22T08:24:35.612Z,16.80
2019-04-22T08:27:05.976Z,16.90
2019-04-22T08:29:38.102Z,16.90
2019-04-22T08:31:59.646Z,17.00
2019-04-22T08:34:30.996Z,18.40
2019-04-22T08:37:37.358Z,17.20
2019-04-22T08:39:34.564Z,17.20
2019-04-22T08:41:57.215Z,17.20
2019-04-22T08:44:52.059Z,17.20
2019-04-22T08:47:13.378Z,17.30
2019-04-22T08:49:46.930Z,17.40
2019-04-22T08:52:10.828Z,17.50
2019-04-22T08:54:42.120Z,17.50
2019-04-22T08:59:38.551Z,17.60
2019-04-22T09:02:12.070Z,17.70
2019-04-22T09:04:39.112Z,17.80
2019-04-22T09:09:42.908Z,17.90
2019-04-22T09:12:10.934Z,17.70
2019-04-22T09:17:13.684Z,17.70
2019-04-22T09:19:34.030Z,17.50
2019-04-22T09:22:15.473Z,17.50
2019-04-22T09:27:13.114Z,17.70
2019-04-22T09:29:41.264Z,17.80
2019-04-22T09:32:14.818Z,16.00
2019-04-22T09:34:43.386Z,18.10
2019-04-22T09:37:23.125Z,18.20
2019-04-22T09:39:46.120Z,18.30
2019-04-22T09:42:09.039Z,18.20
2019-04-22T09:44:40.421Z,18.20
2019-04-22T09:47:11.607Z,18.10
2019-04-22T09:52:10.149Z,18.10
2019-04-22T09:54:46.393Z,18.30
2019-04-22T09:57:09.565Z,18.30
2019-04-22T09:59:48.544Z,17.70
2019-04-22T10:04:40.487Z,18.60
2019-04-22T10:07:15.330Z,18.70
2019-04-22T10:12:32.356Z,18.90
2019-04-22T10:14:45.094Z,19.00
2019-04-22T10:17:14.058Z,19.10
2019-04-22T10:19:41.239Z,19.10
2019-04-22T10:22:23.929Z,19.10
2019-04-22T10:24:45.345Z,19.20
2019-04-22T10:27:12.980Z,19.10
2019-04-22T10:29:51.513Z,19.20
2019-04-22T10:32:14.341Z,19.30
2019-04-22T10:34:29.220Z,19.30
2019-04-22T10:36:54.415Z,19.50
2019-04-22T10:39:20.215Z,19.60
2019-04-22T10:41:48.783Z,19.60
2019-04-22T10:44:17.307Z,19.50
2019-04-22T10:46:46.262Z,19.60
2019-04-22T10:49:15.993Z,19.50
2019-04-22T10:51:44.566Z,19.50
2019-04-22T10:54:13.583Z,19.50
2019-04-22T10:56:43.257Z,19.50
2019-04-22T10:59:11.989Z,19.60
2019-04-22T11:01:40.467Z,19.60
2019-04-22T11:04:09.121Z,19.70
2019-04-22T11:06:40.920Z,19.80
2019-04-22T11:09:08.643Z,19.80
2019-04-22T11:11:46.732Z,19.80
2019-04-22T11:14:08.820Z,19.80
2019-04-22T11:16:37.401Z,19.80
2019-04-22T11:19:05.923Z,19.90
2019-04-22T11:21:35.799Z,20.00
2019-04-22T11:24:05.076Z,20.10
2019-04-22T11:26:34.618Z,20.00
2019-04-22T11:29:03.628Z,20.10
2019-04-22T11:31:32.480Z,20.10
2019-04-22T11:34:00.993Z,20.10
2019-04-22T11:36:30.824Z,20.00
2019-04-22T11:39:03.559Z,20.10
2019-04-22T11:41:29.563Z,20.00
2019-04-22T11:43:59.109Z,20.10
2019-04-22T11:46:27.700Z,20.10
2019-04-22T11:48:56.216Z,20.00
2019-04-22T11:51:24.714Z,20.00
2019-04-22T11:53:54.563Z,20.00
2019-04-22T11:56:23.297Z,20.10
2019-04-22T11:58:52.952Z,20.10
2019-04-22T12:01:21.559Z,20.20
2019-04-22T12:03:51.689Z,20.20
2019-04-22T12:06:20.319Z,20.20
2019-04-22T12:08:50.027Z,20.10
2019-04-22T12:11:18.702Z,17.70
2019-04-22T12:13:48.196Z,20.20
2019-04-22T12:16:17.099Z,20.30
2019-04-22T12:18:47.123Z,20.20
2019-04-22T12:21:17.034Z,20.30
2019-04-22T12:23:45.571Z,20.40
2019-04-22T12:26:18.524Z,20.40
2019-04-22T12:28:44.803Z,20.40
2019-04-22T12:31:13.633Z,20.40
2019-04-22T12:33:43.308Z,20.50
2019-04-22T12:36:12.831Z,20.40
2019-04-22T12:38:41.811Z,20.40
2019-04-22T12:41:12.126Z,20.40
2019-04-22T12:43:40.977Z,20.40
2019-04-22T12:46:10.462Z,20.40
2019-04-22T12:48:39.301Z,20.30
2019-04-22T12:51:09.072Z,20.40
2019-04-22T12:53:38.075Z,20.30
2019-04-22T12:56:07.046Z,20.30
2019-04-22T12:58:35.841Z,20.30
2019-04-22T13:01:04.500Z,20.40
2019-04-22T13:03:34.130Z,20.50
2019-04-22T13:06:03.768Z,20.70
2019-04-22T13:08:33.552Z,20.60
2019-04-22T13:11:08.673Z,20.50
2019-04-22T13:13:34.414Z,20.50
2019-04-22T13:16:02.811Z,20.60
2019-04-22T13:18:38.127Z,20.70
2019-04-22T13:21:02.328Z,19.10
2019-04-22T13:23:31.792Z,20.60
2019-04-22T13:26:00.947Z,20.60
2019-04-22T13:28:29.495Z,20.70
2019-04-22T13:31:01.467Z,20.80
2019-04-22T13:33:28.745Z,20.90
2019-04-22T13:35:57.530Z,20.90
2019-04-22T13:38:27.007Z,20.80
2019-04-22T13:41:07.230Z,20.90
2019-04-22T13:43:27.068Z,21.00
2019-04-22T13:45:56.173Z,21.10
2019-04-22T13:48:46.335Z,21.30
2019-04-22T13:51:33.801Z,21.40
2019-04-22T13:54:19.397Z,21.40
2019-04-22T13:56:15.444Z,21.40
2019-04-22T13:58:42.404Z,21.40
2019-04-22T14:00:58.565Z,21.20
2019-04-22T14:03:36.102Z,21.20
2019-04-22T14:06:06.877Z,23.30
2019-04-22T14:08:37.553Z,21.10
2019-04-22T14:11:19.536Z,21.10
2019-04-22T14:13:37.626Z,21.30
2019-04-22T14:16:06.838Z,21.30
2019-04-22T14:18:36.931Z,21.40
2019-04-22T14:21:06.859Z,21.40
2019-04-22T14:23:35.354Z,21.30
2019-04-22T14:26:04.996Z,21.30
2019-04-22T14:28:33.721Z,21.10
2019-04-22T14:31:02.424Z,21.10
2019-04-22T14:33:32.068Z,21.10
2019-04-22T14:36:00.814Z,21.20
2019-04-22T14:38:30.331Z,21.20
2019-04-22T14:41:00.550Z,21.30
2019-04-22T14:43:57.875Z,21.30
2019-04-22T14:46:23.356Z,21.30
2019-04-22T14:48:50.012Z,21.20
2019-04-22T14:51:19.001Z,21.20
2019-04-22T14:53:44.801Z,21.30
2019-04-22T14:56:00.283Z,21.30
2019-04-22T14:58:28.884Z,21.40
2019-04-22T15:00:59.019Z,21.30
2019-04-22T15:03:27.856Z,21.30
2019-04-22T15:05:57.856Z,21.40
2019-04-22T15:08:26.924Z,21.50
2019-04-22T15:10:55.911Z,21.40
2019-04-22T15:13:25.319Z,21.30
2019-04-22T15:15:57.490Z,21.40
2019-04-22T15:18:31.493Z,21.30
2019-04-22T15:21:08.938Z,24.00
2019-04-22T15:23:38.512Z,21.30
2019-04-22T15:26:08.428Z,21.30
2019-04-22T15:28:37.498Z,21.80
2019-04-22T15:31:06.206Z,22.80
2019-04-22T15:33:35.267Z,24.30
2019-04-22T15:36:04.007Z,25.70
2019-04-22T15:38:32.445Z,27.10
2019-04-22T15:41:01.026Z,27.80
2019-04-22T15:43:32.944Z,27.50
2019-04-22T15:46:02.299Z,27.40
2019-04-22T15:48:32.291Z,27.40
2019-04-22T15:51:00.515Z,27.60
2019-04-22T15:53:29.641Z,28.10
2019-04-22T15:55:58.807Z,27.80
2019-04-22T15:58:28.172Z,28.10
2019-04-22T16:01:10.326Z,28.40
2019-04-22T16:03:26.966Z,28.30
2019-04-22T16:05:55.425Z,27.40
2019-04-22T16:08:24.751Z,27.10
2019-04-22T16:10:53.705Z,27.20
2019-04-22T16:13:26.550Z,27.50
2019-04-22T16:15:52.462Z,27.40
2019-04-22T16:18:22.237Z,27.40
2019-04-22T16:20:52.284Z,27.10
2019-04-22T16:23:27.881Z,26.70
2019-04-22T16:26:13.576Z,26.60
2019-04-22T16:28:45.010Z,26.80
2019-04-22T16:31:13.677Z,26.90
2019-04-22T16:33:44.253Z,26.40
2019-04-22T16:36:13.085Z,26.00
2019-04-22T16:38:42.807Z,26.10
2019-04-22T16:41:12.727Z,26.30
2019-04-22T16:43:42.845Z,26.20
2019-04-22T16:46:11.727Z,26.20
2019-04-22T16:48:40.339Z,26.20
2019-04-22T16:51:09.894Z,26.70
2019-04-22T16:53:38.987Z,26.90
2019-04-22T16:56:08.694Z,25.00
2019-04-22T16:58:38.846Z,25.80
2019-04-22T17:01:10.356Z,25.40
2019-04-22T17:03:56.826Z,25.30
2019-04-22T17:06:27.622Z,25.30
2019-04-22T17:09:00.464Z,25.00
2019-04-22T17:11:31.814Z,24.90
2019-04-22T17:14:01.345Z,24.50
2019-04-22T17:16:30.615Z,24.40
2019-04-22T17:19:00.439Z,24.10
2019-04-22T17:21:29.898Z,24.10
2019-04-22T17:23:59.420Z,24.40
2019-04-22T17:26:28.502Z,24.90
2019-04-22T17:28:58.072Z,24.70
2019-04-22T17:31:27.304Z,24.60
2019-04-22T17:33:57.124Z,24.30
2019-04-22T17:36:26.534Z,24.30
2019-04-22T17:39:13.148Z,23.90
2019-04-22T17:41:41.804Z,23.60
2019-04-22T17:44:27.855Z,23.30
2019-04-22T17:46:46.116Z,23.10
2019-04-22T17:49:37.463Z,22.80
2019-04-22T17:52:20.959Z,22.40
2019-04-22T17:54:50.448Z,22.00
2019-04-22T17:57:22.502Z,21.80
2019-04-22T17:59:53.480Z,21.60
2019-04-22T18:02:17.574Z,21.50
2019-04-22T18:04:38.695Z,21.30
2019-04-22T18:07:33.002Z,20.90
2019-04-22T18:10:16.424Z,20.70
2019-04-22T18:12:34.312Z,20.50
2019-04-22T18:14:59.506Z,20.20
2019-04-22T18:17:27.232Z,20.10
2019-04-22T18:19:51.842Z,19.90
2019-04-22T18:22:19.805Z,19.70
2019-04-22T18:24:50.374Z,19.50
2019-04-22T18:29:51.563Z,19.30
2019-04-22T18:32:13.566Z,19.10
2019-04-22T18:34:44.564Z,19.00
2019-04-22T18:37:19.946Z,18.90
2019-04-22T18:39:58.333Z,18.80
2019-04-22T18:42:23.151Z,18.70
2019-04-22T18:45:06.567Z,18.60
2019-04-22T18:47:18.763Z,18.50
2019-04-22T18:49:49.016Z,18.40
2019-04-22T18:52:27.158Z,18.40
2019-04-22T18:54:56.994Z,18.30
2019-04-22T18:57:29.917Z,18.20
2019-04-22T18:59:46.418Z,18.10
2019-04-22T19:02:16.313Z,18.10
2019-04-22T19:04:53.871Z,18.00
2019-04-22T19:07:35.141Z,17.90
2019-04-22T19:10:09.650Z,17.80
2019-04-22T19:12:44.261Z,17.70
2019-04-22T19:15:07.805Z,17.60
2019-04-22T19:17:50.425Z,17.50
2019-04-22T19:20:13.362Z,17.40
2019-04-22T19:22:36.486Z,18.20
2019-04-22T19:24:59.927Z,17.40
2019-04-22T19:27:35.582Z,17.30
2019-04-22T19:30:14.110Z,17.30
2019-04-22T19:32:38.601Z,17.20
2019-04-22T19:35:04.879Z,17.30
2019-04-22T19:37:35.873Z,17.20
2019-04-22T19:42:43.155Z,17.00
2019-04-22T19:45:08.293Z,17.00
2019-04-22T19:50:14.987Z,16.90
2019-04-22T19:52:53.114Z,16.80
2019-04-22T19:55:07.705Z,16.80
2019-04-22T19:57:34.238Z,16.80
2019-04-22T20:00:09.188Z,16.70
2019-04-22T20:03:07.240Z,16.70
2019-04-22T20:05:30.032Z,16.60
2019-04-22T20:08:04.486Z,16.40
2019-04-22T20:10:36.158Z,16.30
2019-04-22T20:12:56.692Z,16.30
2019-04-22T20:15:26.809Z,16.20
2019-04-22T20:18:22.094Z,16.20
2019-04-22T20:20:42.148Z,16.20
2019-04-22T20:23:02.384Z,16.20
2019-04-22T20:25:34.685Z,16.10
2019-04-22T20:28:07.456Z,16.00
2019-04-22T20:30:39.484Z,15.90
2019-04-22T20:33:06.669Z,15.90
2019-04-22T20:35:39.114Z,15.80
2019-04-22T20:38:12.149Z,15.70
2019-04-22T20:40:40.168Z,15.60
2019-04-22T20:43:15.107Z,15.50
2019-04-22T20:45:40.244Z,15.40
2019-04-22T20:47:58.832Z,15.50
2019-04-22T20:50:41.734Z,15.40
2019-04-22T20:53:16.088Z,15.40
2019-04-22T20:55:41.899Z,15.30
2019-04-22T20:58:12.273Z,15.30
2019-04-22T21:00:36.789Z,15.20
2019-04-22T21:03:02.620Z,15.20
2019-04-22T21:05:33.945Z,15.10
2019-04-22T21:08:11.451Z,15.10
2019-04-22T21:10:35.933Z,15.00
2019-04-22T21:13:07.057Z,15.00
2019-04-22T21:15:49.442Z,15.00
2019-04-22T21:18:11.262Z,14.90
2019-04-22T21:20:49.537Z,14.90
2019-04-22T21:23:13.966Z,14.90
2019-04-22T21:25:36.252Z,14.90
2019-04-22T21:28:19.758Z,14.90
2019-04-22T21:30:43.336Z,14.90
2019-04-22T21:33:11.922Z,14.90
2019-04-22T21:36:12.058Z,14.80
2019-04-22T21:38:14.593Z,14.80
2019-04-22T21:40:45.478Z,14.70
2019-04-22T21:43:18.647Z,14.70
2019-04-22T21:45:43.714Z,14.70
2019-04-22T21:48:27.937Z,14.60
2019-04-22T21:50:57.471Z,14.60
2019-04-22T21:53:27.842Z,14.60
2019-04-22T21:55:50.821Z,14.50
2019-04-22T21:58:27.937Z,14.50
2019-04-22T22:01:06.409Z,14.50
2019-04-22T22:03:31.559Z,14.40
2019-04-22T22:05:47.217Z,14.40
2019-04-22T22:08:32.191Z,14.30
2019-04-22T22:11:00.197Z,14.30
2019-04-22T22:13:31.948Z,14.30
2019-04-22T22:15:56.367Z,14.30
2019-04-22T22:18:24.125Z,14.30
2019-04-22T22:21:19.077Z,14.30
2019-04-22T22:23:31.751Z,14.30
2019-04-22T22:25:55.593Z,14.30
2019-04-22T22:28:45.470Z,14.30
2019-04-22T22:31:10.384Z,14.30
2019-04-22T22:33:31.963Z,14.30
2019-04-22T22:35:58.355Z,14.20
2019-04-22T22:38:27.096Z,14.20
2019-04-22T22:40:43.710Z,14.10
2019-04-22T22:43:21.668Z,14.10
2019-04-22T22:45:48.810Z,14.10
2019-04-22T22:48:37.854Z,14.10
2019-04-22T22:51:02.065Z,14.00
2019-04-22T22:56:04.809Z,14.00
2019-04-22T22:58:38.955Z,14.00
2019-04-22T23:00:57.917Z,13.90
2019-04-22T23:03:45.590Z,14.00
2019-04-22T23:06:03.552Z,13.90
2019-04-22T23:08:49.490Z,13.90
2019-04-22T23:11:22.334Z,13.90
2019-04-22T23:13:35.975Z,13.80
2019-04-22T23:15:58.383Z,13.80
2019-04-22T23:18:14.022Z,13.70
2019-04-22T23:20:47.520Z,13.70
2019-04-22T23:23:33.396Z,13.70
2019-04-22T23:26:06.633Z,13.70
2019-04-22T23:28:43.062Z,13.70
2019-04-22T23:31:21.088Z,13.70
2019-04-22T23:34:02.946Z,13.70
2019-04-22T23:36:25.079Z,13.60
2019-04-22T23:39:03.672Z,13.60
2019-04-22T23:44:10.051Z,13.60
2019-04-22T23:46:42.647Z,13.60
2019-04-22T23:49:11.915Z,13.60
2019-04-22T23:51:51.727Z,13.50
2019-04-22T23:54:13.296Z,13.50
2019-04-22T23:56:43.222Z,13.50
2019-04-22T23:59:38.272Z,13.50
